Time;durP1;ratioP1;P1;durP2;ratioP2;P2;SDS_P1;SDS_P2;PMS_P1;PMS_P2;Temp;Humidity;BMP_temperature;BMP_pressure;BME280_temperature;BME280_humidity;BME280_pressure;Samples;Min_cycle;Max_cycle;Signal;HPM_P1;HPM_P2
2022/10/20 00:01:34;;;;;;;;;17.00;15.00;;;;;;;;5111859;27;46230;-63
2022/10/20 00:04:00;;;;;;;;;15.00;13.67;;;;;;;;5104481;27;45403;-64
2022/10/20 00:06:26;;;;;;;;;20.33;15.00;;;;;;;;5111203;27;45362;-65
2022/10/20 00:08:52;;;;;;;;;19.00;18.33;;;;;;;;5102822;27;46368;-65
2022/10/20 00:11:18;;;;;;;;;17.33;13.33;;;;;;;;5112646;27;45757;-65
2022/10/20 00:13:44;;;;;;;;;18.00;16.67;;;;;;;;5110126;27;45733;-64
2022/10/20 00:16:10;;;;;;;;;17.33;17.33;;;;;;;;5112889;27;45725;-64
2022/10/20 00:18:36;;;;;;;;;16.33;14.00;;;;;;;;5109999;27;46068;-64
2022/10/20 00:21:06;;;;;;;;;19.00;15.00;;;;;;;;5112903;27;45395;-63
2022/10/20 00:23:31;;;;;;;;;19.33;18.00;;;;;;;;5098188;27;45717;-64
2022/10/20 00:26:12;;;;;;;;;21.67;17.00;;;;;;;;5094950;27;45342;-63
2022/10/20 00:28:37;;;;;;;;;17.00;14.00;;;;;;;;5090851;27;45281;-63
2022/10/20 00:31:03;;;;;;;;;18.67;15.67;;;;;;;;5066228;27;45701;-64
2022/10/20 00:33:28;;;;;;;;;16.33;13.33;;;;;;;;5089922;27;45609;-64
2022/10/20 00:35:53;;;;;;;;;18.67;16.33;;;;;;;;5074624;27;46899;-64
2022/10/20 00:38:19;;;;;;;;;22.33;17.33;;;;;;;;5093329;27;46412;-64
2022/10/20 00:40:44;;;;;;;;;17.33;17.33;;;;;;;;5094771;27;45273;-64
2022/10/20 00:43:13;;;;;;;;;19.67;16.67;;;;;;;;5095336;27;45549;-66
2022/10/20 00:45:40;;;;;;;;;16.00;15.67;;;;;;;;5094818;27;45452;-63
2022/10/20 00:48:07;;;;;;;;;21.67;20.67;;;;;;;;5096222;27;46750;-64
2022/10/20 00:50:42;;;;;;;;;23.00;18.67;;;;;;;;5077842;27;45380;-63
2022/10/20 00:53:08;;;;;;;;;18.00;16.33;;;;;;;;5075296;27;45366;-64
2022/10/20 00:55:34;;;;;;;;;18.33;13.67;;;;;;;;5088837;27;45687;-65
2022/10/20 00:58:01;;;;;;;;;16.33;13.67;;;;;;;;5099292;27;45659;-64
2022/10/20 01:00:27;;;;;;;;;18.00;15.00;;;;;;;;5080239;27;45447;-64
2022/10/20 01:02:54;;;;;;;;;21.00;16.67;;;;;;;;5113885;27;45652;-64
2022/10/20 01:05:20;;;;;;;;;15.67;12.67;;;;;;;;5104467;27;45453;-64
2022/10/20 01:07:45;;;;;;;;;13.00;13.00;;;;;;;;5103942;27;46238;-64
2022/10/20 01:10:10;;;;;;;;;16.33;14.67;;;;;;;;5102796;27;45323;-64
2022/10/20 01:12:43;;;;;;;;;17.33;16.33;;;;;;;;5109632;27;45301;-63
2022/10/20 01:15:14;;;;;;;;;21.33;18.67;;;;;;;;5103178;27;45414;-63
2022/10/20 01:17:51;;;;;;;;;22.67;18.67;;;;;;;;5108104;27;46349;-67
2022/10/20 01:20:26;;;;;;;;;12.00;11.00;;;;;;;;5105197;27;45684;-63
2022/10/20 01:23:00;;;;;;;;;20.67;16.67;;;;;;;;5091225;27;45713;-65
2022/10/20 01:25:41;;;;;;;;;19.00;18.00;;;;;;;;5105091;27;45395;-63
2022/10/20 01:28:11;;;;;;;;;17.67;17.00;;;;;;;;5094263;27;45783;-64
2022/10/20 01:30:41;;;;;;;;;13.33;13.33;;;;;;;;5105471;27;45369;-65
2022/10/20 01:33:06;;;;;;;;;14.00;13.00;;;;;;;;5101856;27;45446;-64
2022/10/20 01:35:49;;;;;;;;;14.67;14.67;;;;;;;;5092347;27;46082;-64
2022/10/20 01:38:25;;;;;;;;;17.67;15.33;;;;;;;;5088339;27;47221;-65
2022/10/20 01:40:59;;;;;;;;;13.33;12.33;;;;;;;;5106497;27;45383;-63
2022/10/20 01:43:26;;;;;;;;;18.33;18.00;;;;;;;;5088615;27;45728;-64
2022/10/20 01:45:52;;;;;;;;;22.00;20.33;;;;;;;;5105643;27;45406;-64
2022/10/20 01:48:20;;;;;;;;;20.33;17.00;;;;;;;;5091533;27;46597;-64
2022/10/20 01:50:46;;;;;;;;;22.67;20.33;;;;;;;;5106220;27;45367;-63
2022/10/20 01:53:12;;;;;;;;;16.67;15.00;;;;;;;;5111185;27;45441;-64
2022/10/20 01:55:37;;;;;;;;;11.67;11.67;;;;;;;;5109901;27;45386;-63
2022/10/20 01:58:15;;;;;;;;;16.67;16.33;;;;;;;;5106341;27;45382;-65
2022/10/20 02:00:41;;;;;;;;;11.33;11.33;;;;;;;;5080419;27;45790;-64
2022/10/20 02:03:16;;;;;;;;;15.33;15.33;;;;;;;;5094328;27;45739;-65
2022/10/20 02:06:01;;;;;;;;;11.67;11.67;;;;;;;;5107681;27;45732;-64
2022/10/20 02:08:30;;;;;;;;;18.00;15.33;;;;;;;;5074941;27;47435;-65
2022/10/20 02:10:57;;;;;;;;;15.33;13.00;;;;;;;;5080461;27;45422;-63
2022/10/20 02:13:24;;;;;;;;;12.67;12.33;;;;;;;;5094974;27;45478;-62
2022/10/20 02:15:54;;;;;;;;;12.00;11.33;;;;;;;;5085430;27;45995;-64
2022/10/20 02:18:27;;;;;;;;;11.67;11.00;;;;;;;;5088954;27;45710;-63
2022/10/20 02:20:54;;;;;;;;;13.33;9.67;;;;;;;;5095800;27;45461;-63
2022/10/20 02:23:19;;;;;;;;;8.33;5.33;;;;;;;;5105336;27;45424;-63
2022/10/20 02:25:45;;;;;;;;;11.00;10.00;;;;;;;;5083770;27;46421;-64
2022/10/20 02:28:12;;;;;;;;;15.00;11.00;;;;;;;;5111581;27;45684;-64
2022/10/20 02:30:39;;;;;;;;;12.00;12.00;;;;;;;;5094089;27;45410;-63
2022/10/20 02:33:05;;;;;;;;;13.00;11.00;;;;;;;;5063038;27;45422;-65
2022/10/20 02:35:31;;;;;;;;;10.75;8.75;;;;;;;;5093037;27;45454;-62
2022/10/20 02:37:58;;;;;;;;;10.75;8.75;;;;;;;;5091340;27;46471;-63
2022/10/20 02:40:23;;;;;;;;;11.00;9.67;;;;;;;;5091833;27;45364;-63
2022/10/20 02:42:49;;;;;;;;;9.67;7.67;;;;;;;;5102251;27;45560;-63
2022/10/20 02:45:14;;;;;;;;;11.50;10.25;;;;;;;;5101313;27;45444;-64
2022/10/20 02:47:40;;;;;;;;;9.50;6.00;;;;;;;;5092385;27;46261;-64
2022/10/20 02:50:06;;;;;;;;;10.50;9.75;;;;;;;;5100257;27;45411;-64
2022/10/20 02:52:31;;;;;;;;;7.00;7.00;;;;;;;;5081110;27;45364;-64
2022/10/20 02:54:56;;;;;;;;;9.67;7.67;;;;;;;;5095538;27;45672;-63
2022/10/20 02:57:21;;;;;;;;;8.25;7.50;;;;;;;;5093158;27;46255;-65
2022/10/20 02:59:47;;;;;;;;;8.25;7.50;;;;;;;;5074866;27;45911;-63
2022/10/20 03:02:12;;;;;;;;;11.00;8.67;;;;;;;;5089754;27;45628;-63
2022/10/20 03:04:37;;;;;;;;;11.00;8.25;;;;;;;;5097551;27;45461;-62
2022/10/20 03:07:03;;;;;;;;;5.25;5.25;;;;;;;;5100408;27;46665;-64
2022/10/20 03:09:28;;;;;;;;;8.00;7.00;;;;;;;;5101935;27;45422;-64
2022/10/20 03:11:53;;;;;;;;;4.75;4.00;;;;;;;;5103196;27;45762;-63
2022/10/20 03:14:18;;;;;;;;;7.50;6.25;;;;;;;;5111295;27;45948;-63
2022/10/20 03:16:44;;;;;;;;;3.50;0.25;;;;;;;;5096296;27;45573;-65
2022/10/20 03:19:09;;;;;;;;;9.50;6.00;;;;;;;;5116614;27;45382;-66
2022/10/20 03:21:34;;;;;;;;;9.00;6.75;;;;;;;;5097703;27;45832;-64
2022/10/20 03:23:59;;;;;;;;;9.00;6.75;;;;;;;;5116847;27;45745;-65
2022/10/20 03:26:25;;;;;;;;;7.25;5.50;;;;;;;;5094646;27;45585;-64
2022/10/20 03:28:50;;;;;;;;;5.25;5.25;;;;;;;;5092426;27;45767;-63
2022/10/20 03:31:16;;;;;;;;;4.50;4.50;;;;;;;;5093205;27;45773;-63
2022/10/20 03:33:41;;;;;;;;;5.50;4.50;;;;;;;;5098098;27;46863;-64
2022/10/20 03:36:07;;;;;;;;;7.00;5.75;;;;;;;;5114740;27;45620;-63
2022/10/20 03:38:32;;;;;;;;;10.25;6.75;;;;;;;;5107424;27;45365;-64
2022/10/20 03:40:57;;;;;;;;;12.00;9.25;;;;;;;;5097872;27;45301;-64
2022/10/20 03:43:22;;;;;;;;;6.00;4.00;;;;;;;;5096204;27;46317;-64
2022/10/20 03:45:48;;;;;;;;;2.00;2.00;;;;;;;;5069123;27;47031;-64
2022/10/20 03:48:13;;;;;;;;;14.67;12.33;;;;;;;;5110186;27;45426;-66
2022/10/20 03:50:39;;;;;;;;;7.00;6.50;;;;;;;;5099689;27;45336;-65
2022/10/20 03:53:04;;;;;;;;;5.75;4.75;;;;;;;;5103613;27;46523;-63
2022/10/20 03:55:29;;;;;;;;;4.00;4.00;;;;;;;;5095107;27;46032;-62
2022/10/20 03:57:54;;;;;;;;;6.50;5.25;;;;;;;;5115255;27;45350;-63
2022/10/20 04:00:20;;;;;;;;;5.25;5.00;;;;;;;;5116184;27;45477;-63
2022/10/20 04:02:46;;;;;;;;;5.50;5.00;;;;;;;;5114638;27;45695;-64
2022/10/20 04:05:17;;;;;;;;;6.50;6.50;;;;;;;;5110798;27;46445;-62
2022/10/20 04:07:42;;;;;;;;;12.33;10.33;;;;;;;;5113410;27;45438;-63
2022/10/20 04:10:08;;;;;;;;;7.50;7.00;;;;;;;;5086094;27;45393;-64
2022/10/20 04:12:33;;;;;;;;;8.00;7.00;;;;;;;;5111408;27;45492;-64
2022/10/20 04:14:58;;;;;;;;;8.00;6.25;;;;;;;;5099775;27;46242;-67
2022/10/20 04:17:24;;;;;;;;;6.33;3.00;;;;;;;;5110818;27;45679;-67
2022/10/20 04:19:49;;;;;;;;;10.75;9.50;;;;;;;;5110409;27;45319;-67
2022/10/20 04:22:14;;;;;;;;;23.00;20.00;;;;;;;;5114945;27;45383;-69
2022/10/20 04:24:40;;;;;;;;;10.67;9.33;;;;;;;;5103263;27;45636;-66
2022/10/20 04:27:05;;;;;;;;;10.00;10.00;;;;;;;;5105008;27;46317;-71
2022/10/20 04:29:30;;;;;;;;;11.33;9.67;;;;;;;;5106802;27;45622;-67
2022/10/20 04:31:56;;;;;;;;;12.50;10.00;;;;;;;;5102637;27;45596;-67
2022/10/20 04:34:21;;;;;;;;;10.00;8.25;;;;;;;;5096177;27;46164;-68
2022/10/20 04:36:46;;;;;;;;;11.33;9.33;;;;;;;;5089996;27;46484;-69
2022/10/20 04:39:11;;;;;;;;;9.00;9.00;;;;;;;;5092163;27;45434;-69
2022/10/20 04:41:37;;;;;;;;;11.75;8.50;;;;;;;;5095810;27;45989;-69
2022/10/20 04:44:02;;;;;;;;;12.00;9.33;;;;;;;;5096716;27;46168;-67
2022/10/20 04:46:27;;;;;;;;;9.33;8.33;;;;;;;;5103603;27;45530;-68
2022/10/20 04:48:52;;;;;;;;;10.33;9.33;;;;;;;;5109995;27;45893;-66
2022/10/20 04:51:18;;;;;;;;;11.33;8.00;;;;;;;;5092001;27;45468;-67
2022/10/20 04:53:43;;;;;;;;;12.75;8.25;;;;;;;;5096945;27;45802;-69
2022/10/20 04:56:11;;;;;;;;;7.75;5.75;;;;;;;;5113096;27;45675;-68
2022/10/20 04:58:36;;;;;;;;;8.50;6.00;;;;;;;;5113581;27;45666;-69
2022/10/20 05:01:03;;;;;;;;;9.00;8.67;;;;;;;;5070870;27;45615;-68
2022/10/20 05:03:28;;;;;;;;;7.00;6.00;;;;;;;;5113455;27;47060;-68
2022/10/20 05:05:53;;;;;;;;;7.25;7.25;;;;;;;;5100007;27;45306;-68
2022/10/20 05:08:18;;;;;;;;;12.00;10.67;;;;;;;;5105583;27;45408;-69
2022/10/20 05:10:44;;;;;;;;;10.00;8.67;;;;;;;;5089515;27;45472;-67
2022/10/20 05:13:09;;;;;;;;;9.50;7.00;;;;;;;;5083369;27;46860;-68
2022/10/20 05:15:34;;;;;;;;;8.50;8.50;;;;;;;;5083007;27;45604;-68
2022/10/20 05:18:00;;;;;;;;;9.33;7.67;;;;;;;;5074478;27;45306;-70
2022/10/20 05:20:25;;;;;;;;;14.67;8.33;;;;;;;;5094675;27;45495;-68
2022/10/20 05:22:50;;;;;;;;;9.67;8.33;;;;;;;;5101004;27;46067;-68
2022/10/20 05:25:15;;;;;;;;;6.33;6.33;;;;;;;;5109832;27;45351;-71
2022/10/20 05:27:41;;;;;;;;;9.50;7.00;;;;;;;;5100137;27;45584;-69
2022/10/20 05:30:06;;;;;;;;;5.00;4.00;;;;;;;;5109383;27;45567;-68
2022/10/20 05:32:31;;;;;;;;;7.75;4.75;;;;;;;;5104070;27;46133;-68
2022/10/20 05:34:57;;;;;;;;;5.75;5.50;;;;;;;;5090156;27;45878;-69
2022/10/20 05:37:22;;;;;;;;;8.25;5.00;;;;;;;;5089681;27;45463;-70
2022/10/20 05:39:47;;;;;;;;;5.50;3.75;;;;;;;;5093569;27;45473;-70
2022/10/20 05:42:12;;;;;;;;;5.50;5.50;;;;;;;;5094687;27;45871;-70
2022/10/20 05:44:38;;;;;;;;;9.75;6.00;;;;;;;;5105550;27;45459;-70
2022/10/20 05:47:03;;;;;;;;;4.25;3.00;;;;;;;;5103205;27;45674;-69
2022/10/20 05:49:28;;;;;;;;;5.00;2.00;;;;;;;;5103980;27;45351;-68
2022/10/20 05:51:53;;;;;;;;;6.25;4.75;;;;;;;;5107176;27;46158;-66
2022/10/20 05:54:19;;;;;;;;;7.50;4.75;;;;;;;;5107776;27;45941;-68
2022/10/20 05:56:44;;;;;;;;;6.00;6.00;;;;;;;;5107898;27;45486;-67
2022/10/20 05:59:09;;;;;;;;;10.25;4.00;;;;;;;;5109935;27;45632;-68
2022/10/20 06:01:47;;;;;;;;;5.50;5.25;;;;;;;;5101361;27;45386;-66
2022/10/20 06:04:13;;;;;;;;;8.50;5.75;;;;;;;;5069238;27;45700;-68
2022/10/20 06:06:39;;;;;;;;;8.75;6.25;;;;;;;;5083406;27;45340;-66
2022/10/20 06:09:06;;;;;;;;;4.00;4.00;;;;;;;;5097429;27;45303;-67
2022/10/20 06:11:32;;;;;;;;;8.25;6.25;;;;;;;;5080800;27;46165;-65
2022/10/20 06:13:57;;;;;;;;;8.50;6.75;;;;;;;;5081401;27;45435;-66
2022/10/20 06:16:23;;;;;;;;;6.50;5.50;;;;;;;;5088382;27;45277;-65
2022/10/20 06:18:49;;;;;;;;;6.25;5.50;;;;;;;;5085408;27;45550;-64
2022/10/20 06:21:15;;;;;;;;;9.75;7.00;;;;;;;;5079800;27;45425;-64
2022/10/20 06:23:41;;;;;;;;;5.00;5.00;;;;;;;;5074947;27;45966;-65
2022/10/20 06:26:07;;;;;;;;;6.00;5.50;;;;;;;;5080790;27;45418;-64
2022/10/20 06:28:33;;;;;;;;;4.75;4.00;;;;;;;;5098344;27;45357;-64
2022/10/20 06:30:59;;;;;;;;;5.50;5.00;;;;;;;;5082702;27;45739;-67
2022/10/20 06:33:25;;;;;;;;;10.25;8.00;;;;;;;;5098605;27;45701;-65
2022/10/20 06:35:50;;;;;;;;;5.00;5.00;;;;;;;;5110955;27;45786;-66
2022/10/20 06:38:16;;;;;;;;;7.00;5.75;;;;;;;;5111953;27;45272;-64
2022/10/20 06:40:41;;;;;;;;;5.50;5.50;;;;;;;;5102902;27;45699;-65
2022/10/20 06:43:06;;;;;;;;;4.00;4.00;;;;;;;;5102949;27;45578;-64
2022/10/20 06:45:31;;;;;;;;;4.50;4.25;;;;;;;;5104675;27;45668;-66
2022/10/20 06:47:57;;;;;;;;;6.50;6.50;;;;;;;;5106374;27;45497;-65
2022/10/20 06:50:22;;;;;;;;;5.25;4.25;;;;;;;;5099838;27;45739;-68
2022/10/20 06:52:47;;;;;;;;;12.75;9.00;;;;;;;;5090462;27;45804;-67
2022/10/20 06:55:12;;;;;;;;;6.75;5.00;;;;;;;;5109705;27;45667;-67
2022/10/20 06:57:37;;;;;;;;;9.75;6.00;;;;;;;;5109419;27;45635;-67
2022/10/20 07:00:03;;;;;;;;;6.00;3.75;;;;;;;;5094976;27;45512;-67
2022/10/20 07:02:28;;;;;;;;;3.75;3.75;;;;;;;;5108953;27;45506;-70
2022/10/20 07:04:54;;;;;;;;;6.00;4.50;;;;;;;;5111766;27;45675;-66
2022/10/20 07:07:19;;;;;;;;;7.25;6.00;;;;;;;;5090571;27;45596;-65
2022/10/20 07:09:44;;;;;;;;;5.25;4.25;;;;;;;;5092070;27;45788;-67
2022/10/20 07:12:10;;;;;;;;;5.00;4.50;;;;;;;;5090855;27;46561;-67
2022/10/20 07:14:36;;;;;;;;;6.75;3.25;;;;;;;;5074401;27;45952;-66
2022/10/20 07:17:01;;;;;;;;;5.50;4.25;;;;;;;;5107085;27;45884;-68
2022/10/20 07:19:27;;;;;;;;;9.75;8.50;;;;;;;;5095482;27;46168;-66
2022/10/20 07:21:52;;;;;;;;;10.67;9.67;;;;;;;;5078247;27;45502;-67
2022/10/20 07:24:17;;;;;;;;;14.25;8.50;;;;;;;;5089386;27;45720;-67
2022/10/20 07:26:42;;;;;;;;;8.50;4.25;;;;;;;;5107599;27;45650;-67
2022/10/20 07:29:08;;;;;;;;;6.00;6.00;;;;;;;;5089308;27;47355;-67
2022/10/20 07:31:35;;;;;;;;;9.67;5.00;;;;;;;;5100459;27;45404;-67
2022/10/20 07:34:00;;;;;;;;;6.50;4.75;;;;;;;;5099114;27;45394;-65
2022/10/20 07:36:27;;;;;;;;;7.25;5.00;;;;;;;;5101892;27;45947;-66
2022/10/20 07:38:54;;;;;;;;;9.00;6.00;;;;;;;;5085443;27;48175;-65
2022/10/20 07:41:19;;;;;;;;;10.67;8.33;;;;;;;;5108530;27;45486;-65
2022/10/20 07:43:45;;;;;;;;;10.67;8.33;;;;;;;;5090187;27;45388;-67
2022/10/20 07:46:11;;;;;;;;;5.25;5.25;;;;;;;;5095844;27;45817;-67
2022/10/20 07:48:37;;;;;;;;;5.50;5.00;;;;;;;;5111494;27;45334;-67
2022/10/20 07:51:16;;;;;;;;;8.25;6.00;;;;;;;;5105585;27;45365;-66
2022/10/20 07:53:41;;;;;;;;;4.50;3.00;;;;;;;;5098748;27;45750;-67
2022/10/20 07:56:07;;;;;;;;;4.00;4.00;;;;;;;;5116298;27;45446;-68
2022/10/20 07:58:32;;;;;;;;;10.25;7.00;;;;;;;;5117174;27;46247;-66
2022/10/20 08:00:57;;;;;;;;;3.50;2.00;;;;;;;;5079527;27;45419;-67
2022/10/20 08:03:22;;;;;;;;;6.25;5.00;;;;;;;;5097046;27;45631;-66
2022/10/20 08:05:48;;;;;;;;;3.50;3.50;;;;;;;;5078691;27;45556;-67
2022/10/20 08:08:16;;;;;;;;;7.00;3.00;;;;;;;;5092334;27;45833;-66
2022/10/20 08:10:44;;;;;;;;;4.00;4.00;;;;;;;;5104721;27;45362;-66
2022/10/20 08:13:09;;;;;;;;;6.00;4.25;;;;;;;;5097350;27;45327;-66
2022/10/20 08:15:34;;;;;;;;;5.00;4.00;;;;;;;;5112203;27;45223;-70
2022/10/20 08:18:00;;;;;;;;;9.50;5.75;;;;;;;;5093068;27;46185;-66
2022/10/20 08:20:25;;;;;;;;;5.75;4.75;;;;;;;;5086293;27;45686;-66
2022/10/20 08:22:50;;;;;;;;;5.75;5.00;;;;;;;;5105084;27;45297;-65
2022/10/20 08:25:16;;;;;;;;;6.00;5.25;;;;;;;;5106372;27;45624;-66
2022/10/20 08:27:41;;;;;;;;;5.25;4.25;;;;;;;;5107459;27;45592;-65
2022/10/20 08:30:07;;;;;;;;;5.25;4.50;;;;;;;;5095206;27;45521;-66
2022/10/20 08:32:32;;;;;;;;;4.00;4.00;;;;;;;;5096165;27;45443;-67
2022/10/20 08:34:58;;;;;;;;;7.00;5.25;;;;;;;;5097058;27;45627;-66
2022/10/20 08:37:23;;;;;;;;;5.25;3.75;;;;;;;;5086192;27;48079;-68
2022/10/20 08:39:49;;;;;;;;;7.00;5.00;;;;;;;;5102600;27;45394;-67
2022/10/20 08:42:15;;;;;;;;;4.00;4.00;;;;;;;;5099151;27;45368;-65
2022/10/20 08:44:43;;;;;;;;;5.25;4.25;;;;;;;;5097596;27;45465;-67
2022/10/20 08:47:30;;;;;;;;;6.25;5.75;;;;;;;;5094106;27;46635;-65
2022/10/20 08:49:55;;;;;;;;;3.50;2.75;;;;;;;;5102992;27;45652;-67
2022/10/20 08:52:22;;;;;;;;;5.25;4.25;;;;;;;;5099544;27;45598;-67
2022/10/20 08:54:50;;;;;;;;;1.00;1.00;;;;;;;;5081765;27;46201;-66
2022/10/20 08:57:26;;;;;;;;;5.00;2.25;;;;;;;;5102205;27;46675;-66
2022/10/20 08:59:52;;;;;;;;;2.50;2.50;;;;;;;;5085826;27;46397;-67
2022/10/20 09:02:18;;;;;;;;;6.50;4.00;;;;;;;;5097590;27;45426;-66
2022/10/20 09:05:03;;;;;;;;;4.00;3.00;;;;;;;;5075590;27;46123;-65
2022/10/20 09:07:36;;;;;;;;;7.00;5.25;;;;;;;;5094999;27;46501;-67
2022/10/20 09:10:20;;;;;;;;;5.25;3.75;;;;;;;;5090625;27;45439;-65
2022/10/20 09:12:47;;;;;;;;;2.25;2.25;;;;;;;;5092095;27;45483;-65
2022/10/20 09:15:13;;;;;;;;;6.00;4.00;;;;;;;;5106040;27;45375;-65
2022/10/20 09:17:41;;;;;;;;;3.25;3.25;;;;;;;;5089631;27;46452;-67
2022/10/20 09:20:12;;;;;;;;;3.50;2.00;;;;;;;;5095872;27;45687;-66
2022/10/20 09:22:38;;;;;;;;;5.00;4.00;;;;;;;;5110315;27;45484;-66
2022/10/20 09:25:04;;;;;;;;;2.25;2.25;;;;;;;;5105299;27;45375;-67
2022/10/20 09:27:34;;;;;;;;;4.00;3.00;;;;;;;;5111351;27;45449;-66
2022/10/20 09:30:19;;;;;;;;;4.80;3.00;;;;;;;;5108399;27;45399;-67
2022/10/20 09:32:46;;;;;;;;;4.25;3.25;;;;;;;;5110462;27;45444;-67
2022/10/20 09:35:25;;;;;;;;;2.00;2.00;;;;;;;;5107219;27;45688;-65
2022/10/20 09:37:53;;;;;;;;;3.00;3.00;;;;;;;;5101674;27;46181;-65
2022/10/20 09:40:18;;;;;;;;;2.80;2.80;;;;;;;;5089135;27;45588;-66
2022/10/20 09:42:48;;;;;;;;;4.75;3.75;;;;;;;;5093058;27;45486;-67
2022/10/20 09:45:20;;;;;;;;;2.75;2.75;;;;;;;;5088365;27;45687;-67
2022/10/20 09:47:48;;;;;;;;;1.75;1.00;;;;;;;;5095416;27;45688;-66
2022/10/20 09:50:19;;;;;;;;;3.40;2.20;;;;;;;;5097067;27;45472;-67
2022/10/20 09:52:47;;;;;;;;;2.75;2.75;;;;;;;;5099216;27;45453;-70
2022/10/20 09:55:29;;;;;;;;;2.75;2.75;;;;;;;;5095609;27;45544;-66
2022/10/20 09:57:55;;;;;;;;;2.00;2.00;;;;;;;;5093476;27;46333;-67
2022/10/20 10:00:22;;;;;;;;;2.00;2.00;;;;;;;;5103711;27;45409;-65
2022/10/20 10:02:47;;;;;;;;;2.00;2.00;;;;;;;;5108560;27;45795;-66
2022/10/20 10:05:18;;;;;;;;;3.75;1.00;;;;;;;;5201833;22;45584;-87
2022/10/20 10:07:50;;;;;;;;;1.40;1.40;;;;;;;;5094500;27;45421;-85
2022/10/20 10:10:23;;;;;;;;;2.00;2.00;;;;;;;;5108805;27;44709;-86
2022/10/20 10:13:06;;;;;;;;;;;;;;;;;;;;;
2022/10/20 10:15:39;;;;;;;;;1.80;1.40;;;;;;;;5093061;27;73631;-87
2022/10/20 10:18:20;;;;;;;;;0.80;0.80;;;;;;;;5089986;27;45584;-86
2022/10/20 10:20:46;;;;;;;;;2.00;2.00;;;;;;;;5089706;27;45440;-89
2022/10/20 10:23:17;;;;;;;;;0.50;0.50;;;;;;;;5090331;27;44768;-88
2022/10/20 10:25:48;;;;;;;;;1.50;1.50;;;;;;;;5088154;27;46212;-87
2022/10/20 10:28:32;;;;;;;;;0.00;0.00;;;;;;;;5106108;27;45377;-86
2022/10/20 10:31:05;;;;;;;;;1.00;0.20;;;;;;;;5085538;27;45788;-88
2022/10/20 10:33:34;;;;;;;;;3.25;2.00;;;;;;;;5091866;27;44780;-88
2022/10/20 10:36:33;;;;;;;;;1.00;1.00;;;;;;;;5093380;27;46158;-89
2022/10/20 10:39:04;;;;;;;;;1.20;1.20;;;;;;;;5078053;27;46944;-85
2022/10/20 10:41:42;;;;;;;;;3.00;0.80;;;;;;;;5080172;27;45614;-83
2022/10/20 10:44:25;;;;;;;;;1.00;1.00;;;;;;;;5086987;27;45393;-83
2022/10/20 10:47:14;;;;;;;;;3.25;1.00;;;;;;;;5090774;27;45663;-87
2022/10/20 10:49:39;;;;;;;;;1.00;1.00;;;;;;;;5086307;27;45833;-84
2022/10/20 10:52:20;;;;;;;;;1.00;1.00;;;;;;;;5097928;27;45761;-85
2022/10/20 10:54:49;;;;;;;;;1.00;1.00;;;;;;;;5096164;27;45742;-85
2022/10/20 10:57:22;;;;;;;;;0.50;0.00;;;;;;;;5090875;27;45530;-84
2022/10/20 10:59:52;;;;;;;;;3.00;1.00;;;;;;;;5080194;27;45763;-87
2022/10/20 11:02:25;;;;;;;;;1.40;1.40;;;;;;;;5095079;27;45461;-84
2022/10/20 11:05:02;;;;;;;;;0.75;0.75;;;;;;;;5069392;27;45551;-84
2022/10/20 11:07:44;;;;;;;;;1.75;0.25;;;;;;;;5077277;27;45255;-84
2022/10/20 11:10:59;;;;;;;;;;;;;;;;;;;;;
2022/10/20 11:13:33;;;;;;;;;0.60;0.20;;;;;;;;5082539;27;44793;-86
2022/10/20 11:16:09;;;;;;;;;1.50;0.50;;;;;;;;5081043;27;45865;-86
2022/10/20 11:18:43;;;;;;;;;1.50;0.75;;;;;;;;5086328;27;45453;-85
2022/10/20 11:21:25;;;;;;;;;1.50;0.00;;;;;;;;5102698;27;45496;-83
2022/10/20 11:23:54;;;;;;;;;0.75;0.75;;;;;;;;5061622;28;44818;-86
2022/10/20 11:26:26;;;;;;;;;0.00;0.00;;;;;;;;5086811;28;45436;-85
2022/10/20 11:28:54;;;;;;;;;1.25;1.25;;;;;;;;5078602;27;47097;-85
2022/10/20 11:31:49;;;;;;;;;2.00;0.75;;;;;;;;5072747;28;45804;-85
2022/10/20 11:34:24;;;;;;;;;2.00;0.25;;;;;;;;5062648;27;45411;-83
2022/10/20 11:37:18;;;;;;;;;0.50;0.50;;;;;;;;5098235;27;45111;-84
2022/10/20 11:40:08;;;;;;;;;0.25;0.00;;;;;;;;5074438;28;46131;-86
2022/10/20 11:42:53;;;;;;;;;2.50;0.00;;;;;;;;5083294;27;47623;-84
2022/10/20 11:45:36;;;;;;;;;0.75;0.75;;;;;;;;5083247;28;44795;-85
2022/10/20 11:48:24;;;;;;;;;1.50;1.50;;;;;;;;5080973;28;45382;-84
2022/10/20 11:51:26;;;;;;;;;1.00;0.00;;;;;;;;5059555;28;45621;-84
2022/10/20 11:55:10;;;;;;;;;;;;;;;;;;;;;
2022/10/20 11:57:37;;;;;;;;;0.00;0.00;;;;;;;;5085390;27;45553;-84
2022/10/20 12:00:35;;;;;;;;;0.75;0.00;;;;;;;;5070551;28;45536;-82
2022/10/20 12:03:44;;;;;;;;;2.75;0.00;;;;;;;;5075390;27;45529;-82
2022/10/20 12:06:35;;;;;;;;;0.50;0.50;;;;;;;;5085741;27;45866;-85
2022/10/20 12:09:52;;;;;;;;;1.00;1.00;;;;;;;;5101219;27;45538;-82
2022/10/20 12:12:54;;;;;;;;;1.75;1.00;;;;;;;;5092894;27;45666;-83
2022/10/20 12:19:06;;;;;;;;;2.75;0.75;;;;;;;;4888931;28;45647;-80
2022/10/20 12:21:50;;;;;;;;;3.00;0.00;;;;;;;;4947846;28;45925;-80
2022/10/20 12:24:31;;;;;;;;;1.00;1.00;;;;;;;;5055646;27;45602;-80
2022/10/20 12:27:04;;;;;;;;;0.00;0.00;;;;;;;;5088637;27;45644;-81
2022/10/20 12:29:30;;;;;;;;;1.00;1.00;;;;;;;;5081526;27;47265;-86
2022/10/20 12:32:14;;;;;;;;;1.00;1.00;;;;;;;;5087334;27;44981;-85
2022/10/20 12:35:22;;;;;;;;;1.75;1.00;;;;;;;;5100592;27;45408;-88
2022/10/20 12:38:00;;;;;;;;;1.00;1.00;;;;;;;;5071798;27;45905;-86
2022/10/20 12:40:59;;;;;;;;;;;;;;;;;;;;;
2022/10/20 12:43:36;;;;;;;;;3.75;1.00;;;;;;;;5095954;27;72656;-87
2022/10/20 12:46:05;;;;;;;;;3.50;2.00;;;;;;;;5098086;27;45381;-86
2022/10/20 12:48:33;;;;;;;;;1.75;1.00;;;;;;;;5090728;27;45834;-85
2022/10/20 12:51:05;;;;;;;;;1.50;0.25;;;;;;;;5083432;27;46842;-85
2022/10/20 12:53:31;;;;;;;;;1.00;1.00;;;;;;;;5080468;28;45640;-86
2022/10/20 12:56:09;;;;;;;;;0.75;0.75;;;;;;;;5105208;27;45694;-87
2022/10/20 12:58:39;;;;;;;;;2.00;1.00;;;;;;;;5082726;27;44848;-86
2022/10/20 13:01:09;;;;;;;;;1.00;0.00;;;;;;;;5077962;27;45497;-88
2022/10/20 13:03:51;;;;;;;;;0.40;0.00;;;;;;;;5094540;27;45662;-88
2022/10/20 13:06:32;;;;;;;;;2.00;1.00;;;;;;;;5085578;27;45886;-82
2022/10/20 13:09:15;;;;;;;;;1.00;1.00;;;;;;;;5099955;27;45774;-86
2022/10/20 13:11:43;;;;;;;;;2.00;2.00;;;;;;;;5079894;27;46757;-86
2022/10/20 13:14:27;;;;;;;;;0.40;0.00;;;;;;;;5077947;27;45352;-86
2022/10/20 13:17:00;;;;;;;;;2.50;1.50;;;;;;;;5103070;27;45357;-87
2022/10/20 13:19:37;;;;;;;;;2.00;1.00;;;;;;;;5099303;27;45320;-81
2022/10/20 13:22:21;;;;;;;;;0.75;0.75;;;;;;;;5083129;27;46932;-80
2022/10/20 13:24:48;;;;;;;;;2.00;0.00;;;;;;;;5089411;27;45515;-79
2022/10/20 13:27:15;;;;;;;;;1.00;0.25;;;;;;;;5094743;27;45868;-82
2022/10/20 13:29:43;;;;;;;;;2.00;0.25;;;;;;;;5078726;27;45704;-81
2022/10/20 13:32:08;;;;;;;;;2.00;2.00;;;;;;;;5088563;27;46381;-80
2022/10/20 13:34:40;;;;;;;;;1.00;1.00;;;;;;;;5081701;27;45787;-81
2022/10/20 13:37:15;;;;;;;;;1.50;0.00;;;;;;;;5079394;27;45391;-80
2022/10/20 13:39:52;;;;;;;;;2.25;2.25;;;;;;;;5096080;27;45792;-80
2022/10/20 13:42:32;;;;;;;;;0.50;0.50;;;;;;;;5096991;27;45818;-81
2022/10/20 13:45:14;;;;;;;;;3.00;1.00;;;;;;;;5087021;27;45385;-80
2022/10/20 13:48:00;;;;;;;;;4.75;1.00;;;;;;;;5097629;27;45821;-79
2022/10/20 13:50:32;;;;;;;;;2.00;2.00;;;;;;;;5079386;27;45442;-81
2022/10/20 13:53:04;;;;;;;;;1.00;1.00;;;;;;;;5085021;27;46035;-80
2022/10/20 13:55:52;;;;;;;;;3.00;1.75;;;;;;;;5091565;27;45316;-81
2022/10/20 13:58:22;;;;;;;;;2.00;1.00;;;;;;;;5098320;27;45560;-81
2022/10/20 14:01:04;;;;;;;;;2.25;2.00;;;;;;;;5094713;27;45717;-82
2022/10/20 14:03:35;;;;;;;;;3.25;2.00;;;;;;;;5082712;27;45616;-82
2022/10/20 14:06:00;;;;;;;;;2.75;2.75;;;;;;;;5092722;27;45504;-81
2022/10/20 14:08:25;;;;;;;;;3.00;1.00;;;;;;;;5077726;27;45415;-81
2022/10/20 14:10:53;;;;;;;;;0.25;0.25;;;;;;;;5094006;27;45957;-80
2022/10/20 14:13:21;;;;;;;;;1.50;1.00;;;;;;;;5079087;27;45706;-83
2022/10/20 14:15:47;;;;;;;;;1.25;1.25;;;;;;;;5091785;27;45466;-81
2022/10/20 14:18:26;;;;;;;;;3.00;3.00;;;;;;;;5072449;27;45483;-80
2022/10/20 14:20:53;;;;;;;;;2.75;0.75;;;;;;;;5071838;27;45813;-80
2022/10/20 14:23:18;;;;;;;;;2.00;2.00;;;;;;;;5099434;27;45455;-81
2022/10/20 14:25:55;;;;;;;;;3.75;2.25;;;;;;;;5092649;27;45451;-79
2022/10/20 14:28:28;;;;;;;;;2.00;2.00;;;;;;;;5104144;27;45703;-82
2022/10/20 14:30:54;;;;;;;;;2.00;2.00;;;;;;;;5104228;27;45774;-81
2022/10/20 14:33:20;;;;;;;;;4.00;3.50;;;;;;;;5091652;27;46117;-81
2022/10/20 14:35:50;;;;;;;;;3.00;3.00;;;;;;;;5086321;27;45714;-82
2022/10/20 14:38:18;;;;;;;;;2.00;2.00;;;;;;;;5061712;27;45531;-81
2022/10/20 14:40:57;;;;;;;;;5.75;3.00;;;;;;;;5083809;27;45578;-81
2022/10/20 14:43:37;;;;;;;;;3.25;2.00;;;;;;;;5090817;27;45697;-82
2022/10/20 14:46:12;;;;;;;;;1.75;1.00;;;;;;;;5098865;27;45513;-85
2022/10/20 14:48:43;;;;;;;;;2.50;2.00;;;;;;;;5080399;27;45198;-82
2022/10/20 14:51:44;;;;;;;;;1.25;1.25;;;;;;;;5095699;27;45817;-83
2022/10/20 14:54:16;;;;;;;;;3.50;3.00;;;;;;;;5014471;28;45950;-81
2022/10/20 14:56:48;;;;;;;;;17.50;14.25;;;;;;;;5061395;27;45582;-82
2022/10/20 14:59:18;;;;;;;;;3.25;3.25;;;;;;;;5103342;27;45403;-82
2022/10/20 15:01:55;;;;;;;;;4.75;2.50;;;;;;;;5083576;27;46245;-82
2022/10/20 15:04:23;;;;;;;;;3.75;3.00;;;;;;;;5091188;27;45521;-83